Time;durP1;ratioP1;P1;durP2;ratioP2;P2;SDS_P1;SDS_P2;PMS_P1;PMS_P2;Temp;Humidity;BMP_temperature;BMP_pressure;BME280_temperature;BME280_humidity;BME280_pressure;Samples;Min_cycle;Max_cycle;Signal;HPM_P1;HPM_P2
2022/12/18 00:02:11;;;;;;;5.65;3.58;;;-0.60;99.90;;;;;;5043841;28;20052;-78
2022/12/18 00:04:38;;;;;;;5.70;2.83;;;-0.60;99.90;;;;;;5059940;28;20116;-79
2022/12/18 00:07:05;;;;;;;4.78;3.15;;;-0.60;99.90;;;;;;5043745;28;20055;-78
2022/12/18 00:09:31;;;;;;;6.63;3.30;;;-0.70;99.90;;;;;;5043562;28;20059;-79
2022/12/18 00:12:06;;;;;;;5.30;3.28;;;-0.70;99.90;;;;;;5045144;28;20049;-79
2022/12/18 00:14:41;;;;;;;5.20;3.00;;;-0.70;99.90;;;;;;5059856;28;20106;-79
2022/12/18 00:17:08;;;;;;;6.82;4.00;;;-0.70;99.90;;;;;;5043737;28;20051;-79
2022/12/18 00:19:35;;;;;;;5.32;3.55;;;-0.70;99.90;;;;;;5043587;28;20048;-79
2022/12/18 00:22:02;;;;;;;6.95;4.05;;;-0.80;99.90;;;;;;5044149;28;20071;-78
2022/12/18 00:24:29;;;;;;;5.43;3.22;;;-0.80;99.90;;;;;;5059699;28;20750;-78
2022/12/18 00:26:56;;;;;;;5.70;3.67;;;-0.80;99.90;;;;;;5043794;28;20045;-79
2022/12/18 00:29:23;;;;;;;6.40;3.30;;;-0.90;99.90;;;;;;5059566;28;20455;-79
2022/12/18 00:31:49;;;;;;;5.45;3.40;;;-0.90;99.90;;;;;;5060169;28;20053;-78
2022/12/18 00:34:16;;;;;;;6.75;3.90;;;-0.90;99.90;;;;;;5059883;28;20078;-78
2022/12/18 00:36:43;;;;;;;5.85;3.80;;;-0.80;99.90;;;;;;5060076;28;20519;-78
2022/12/18 00:39:10;;;;;;;4.43;2.75;;;-0.80;99.90;;;;;;5027335;28;20055;-78
2022/12/18 00:44:22;;;;;;;6.15;3.85;;;-0.80;99.90;;;;;;5059254;28;20048;-79
2022/12/18 00:46:49;;;;;;;5.60;3.40;;;-0.80;99.90;;;;;;5059440;28;20056;-78
2022/12/18 00:49:16;;;;;;;6.05;3.78;;;-0.90;99.90;;;;;;5059798;28;20049;-78
2022/12/18 00:51:43;;;;;;;4.72;3.00;;;-0.90;99.90;;;;;;5060070;28;20076;-78
2022/12/18 00:54:10;;;;;;;5.70;3.33;;;-0.90;99.90;;;;;;5042364;28;20125;-78
2022/12/18 00:56:38;;;;;;;5.30;3.15;;;-1.00;99.90;;;;;;5059622;28;20056;-78
2022/12/18 00:59:14;;;;;;;5.80;3.67;;;-1.00;99.90;;;;;;5059015;28;20102;-78
2022/12/18 01:01:42;;;;;;;4.85;3.20;;;-1.00;99.90;;;;;;5042773;28;20091;-78
2022/12/18 01:04:09;;;;;;;5.68;2.92;;;-1.00;99.90;;;;;;5059222;28;20136;-78
2022/12/18 01:06:36;;;;;;;4.70;2.92;;;-1.10;99.90;;;;;;5026312;28;20468;-78
2022/12/18 01:09:03;;;;;;;4.43;2.58;;;-1.10;99.90;;;;;;5042222;28;20067;-79
2022/12/18 01:11:29;;;;;;;5.53;3.20;;;-1.10;99.90;;;;;;5028780;28;20132;-78
2022/12/18 01:13:56;;;;;;;4.47;2.80;;;-1.10;99.90;;;;;;5045763;28;20531;-82
2022/12/18 01:16:23;;;;;;;5.32;3.55;;;-1.20;99.90;;;;;;5046371;28;20056;-79
2022/12/18 01:18:54;;;;;;;4.03;2.88;;;-1.20;99.90;;;;;;5063088;28;20075;-78
2022/12/18 01:21:22;;;;;;;4.75;2.95;;;-1.20;99.90;;;;;;5046385;28;20049;-78
2022/12/18 01:23:52;;;;;;;4.47;2.92;;;-1.20;99.90;;;;;;5064025;28;20241;-77
2022/12/18 01:26:19;;;;;;;5.45;3.03;;;-1.30;99.90;;;;;;5064697;28;20044;-78
2022/12/18 01:28:45;;;;;;;4.78;2.80;;;-1.30;99.90;;;;;;5063723;28;20051;-78
2022/12/18 01:31:33;;;;;;;5.15;2.97;;;-1.30;99.90;;;;;;5062945;28;20460;-78
2022/12/18 01:34:03;;;;;;;5.60;2.75;;;-1.40;99.90;;;;;;5062043;28;20059;-78
2022/12/18 01:36:32;;;;;;;4.47;2.70;;;-1.40;99.90;;;;;;5063921;28;20056;-78
2022/12/18 01:39:00;;;;;;;3.17;2.17;;;-1.50;99.90;;;;;;5062189;28;20055;-79
2022/12/18 01:42:01;;;;;;;3.30;1.92;;;-1.40;99.90;;;;;;5064138;28;20079;-79
2022/12/18 01:44:52;;;;;;;4.97;3.00;;;-1.40;99.90;;;;;;5061920;28;20048;-78
2022/12/18 01:47:23;;;;;;;4.68;2.80;;;-1.50;99.90;;;;;;5062449;28;20048;-78
2022/12/18 01:49:50;;;;;;;5.18;3.08;;;-1.50;99.90;;;;;;5062002;28;20181;-78
2022/12/18 01:52:17;;;;;;;4.55;2.30;;;-1.50;99.90;;;;;;5045588;28;20543;-79
2022/12/18 01:54:44;;;;;;;5.40;3.50;;;-1.50;99.90;;;;;;5022615;28;20492;-78
2022/12/18 01:57:11;;;;;;;5.05;2.88;;;-1.60;99.90;;;;;;5042348;28;20071;-79
2022/12/18 01:59:38;;;;;;;5.07;2.78;;;-1.50;99.90;;;;;;5062267;28;20056;-79
2022/12/18 02:02:06;;;;;;;5.70;3.65;;;-1.50;99.90;;;;;;5030170;28;20339;-78
2022/12/18 02:04:33;;;;;;;5.90;3.30;;;-1.40;99.90;;;;;;5045529;28;20171;-79
2022/12/18 02:07:08;;;;;;;4.82;2.85;;;-1.40;99.90;;;;;;5062099;28;20044;-79
2022/12/18 02:10:18;;;;;;;4.05;2.83;;;-1.40;99.90;;;;;;5029632;28;20168;-79
2022/12/18 02:12:53;;;;;;;5.70;3.47;;;-1.40;99.90;;;;;;5056214;28;20110;-79
2022/12/18 02:15:30;;;;;;;4.68;3.10;;;-1.40;99.90;;;;;;5062058;28;20045;-79
2022/12/18 02:18:05;;;;;;;4.22;2.40;;;-1.40;99.90;;;;;;5029598;28;20044;-79
2022/12/18 02:20:35;;;;;;;4.93;2.88;;;-1.40;99.90;;;;;;5029105;28;20110;-79
2022/12/18 02:23:01;;;;;;;3.90;2.55;;;-1.40;99.90;;;;;;5044864;28;20517;-78
2022/12/18 02:25:47;;;;;;;3.97;2.60;;;-1.50;99.90;;;;;;5062663;28;20499;-79
2022/12/18 02:28:14;;;;;;;4.32;2.35;;;-1.50;99.90;;;;;;5062771;28;20052;-80
2022/12/18 02:30:41;;;;;;;4.32;2.55;;;-1.50;99.90;;;;;;5040812;28;20143;-79
2022/12/18 02:33:08;;;;;;;3.65;2.10;;;-1.60;99.90;;;;;;5059229;28;20850;-79
2022/12/18 02:35:35;;;;;;;4.47;2.40;;;-1.60;99.90;;;;;;5044841;28;20416;-78
2022/12/18 02:38:03;;;;;;;4.60;2.17;;;-1.70;99.90;;;;;;5063700;28;20070;-79
2022/12/18 02:40:30;;;;;;;4.05;2.50;;;-1.70;99.90;;;;;;5030889;28;20053;-79
2022/12/18 02:43:12;;;;;;;4.72;2.45;;;-1.80;99.90;;;;;;5046463;28;20063;-78
2022/12/18 02:45:47;;;;;;;4.05;2.30;;;-1.80;99.90;;;;;;5059546;28;20551;-78
2022/12/18 02:48:13;;;;;;;5.03;2.53;;;-1.80;99.90;;;;;;5046407;28;20053;-79
2022/12/18 02:51:05;;;;;;;3.53;2.20;;;-1.90;99.90;;;;;;5062186;28;20056;-78
2022/12/18 02:53:43;;;;;;;3.75;2.03;;;-1.80;99.90;;;;;;5056371;28;20041;-79
2022/12/18 02:56:11;;;;;;;5.03;2.67;;;-1.90;99.90;;;;;;5033154;28;20526;-79
2022/12/18 02:58:52;;;;;;;4.95;2.92;;;-1.90;99.90;;;;;;5064468;28;20135;-79
2022/12/18 03:01:33;;;;;;;3.38;2.05;;;-1.90;99.90;;;;;;5065206;28;20068;-78
2022/12/18 03:04:07;;;;;;;3.13;2.03;;;-1.90;99.90;;;;;;5064790;28;20071;-79
2022/12/18 03:06:41;;;;;;;3.20;1.88;;;-1.90;99.90;;;;;;5064821;28;20044;-78
2022/12/18 03:09:14;;;;;;;4.25;2.65;;;-1.90;99.90;;;;;;5032440;28;20064;-79
2022/12/18 03:14:29;;;;;;;3.50;1.92;;;-2.00;99.90;;;;;;5050585;28;20290;-78
2022/12/18 03:16:57;;;;;;;4.95;2.25;;;-2.00;99.90;;;;;;5032058;28;20072;-79
2022/12/18 03:19:26;;;;;;;3.35;1.92;;;-2.00;99.90;;;;;;5064321;28;20462;-80
2022/12/18 03:21:54;;;;;;;2.83;1.80;;;-2.00;99.90;;;;;;5048672;28;20056;-78
2022/12/18 03:24:21;;;;;;;4.72;2.35;;;-2.00;99.90;;;;;;5031754;28;20053;-78
2022/12/18 03:26:50;;;;;;;3.47;1.95;;;-2.00;99.90;;;;;;5031826;28;20381;-79
2022/12/18 03:29:43;;;;;;;5.13;2.45;;;-1.90;99.90;;;;;;5048149;28;20105;-79
2022/12/18 03:32:30;;;;;;;4.22;2.17;;;-1.90;99.90;;;;;;5064825;28;20045;-78
2022/12/18 03:34:59;;;;;;;3.08;1.98;;;-1.90;99.90;;;;;;5027274;28;20064;-78
2022/12/18 03:37:26;;;;;;;3.42;1.98;;;-1.80;99.90;;;;;;5044435;28;20052;-78
2022/12/18 03:39:52;;;;;;;4.97;3.10;;;-1.80;99.90;;;;;;5027660;28;20048;-78
2022/12/18 03:42:49;;;;;;;3.85;2.20;;;-1.80;99.90;;;;;;5045995;28;20045;-78
2022/12/18 03:45:31;;;;;;;3.75;2.38;;;-1.70;99.90;;;;;;5064746;28;20052;-79
2022/12/18 03:48:08;;;;;;;3.70;1.90;;;-1.70;99.90;;;;;;5048003;28;20056;-79
2022/12/18 03:50:54;;;;;;;2.80;1.58;;;-1.60;99.90;;;;;;5064798;28;20258;-79
2022/12/18 03:53:32;;;;;;;4.07;2.30;;;-1.60;99.90;;;;;;5065749;28;20145;-79
2022/12/18 03:56:00;;;;;;;4.35;2.15;;;-1.50;99.90;;;;;;5065786;28;20088;-79
2022/12/18 03:58:27;;;;;;;2.85;1.92;;;-1.50;99.90;;;;;;5031310;28;20055;-78
2022/12/18 04:00:56;;;;;;;3.60;2.15;;;-1.50;99.90;;;;;;5030902;28;20479;-79
2022/12/18 04:03:23;;;;;;;3.45;2.20;;;-1.50;99.90;;;;;;5030908;28;20048;-78
2022/12/18 04:05:52;;;;;;;3.15;1.83;;;-1.50;99.90;;;;;;5032022;28;20052;-78
2022/12/18 04:08:20;;;;;;;4.22;2.33;;;-1.40;99.90;;;;;;5047760;28;20044;-78
2022/12/18 04:10:46;;;;;;;4.10;2.25;;;-1.40;99.90;;;;;;5047809;28;20056;-78
2022/12/18 04:13:24;;;;;;;3.60;2.20;;;-1.40;99.90;;;;;;5030411;28;20048;-78
2022/12/18 04:15:51;;;;;;;4.25;2.63;;;-1.30;99.90;;;;;;5047898;28;20052;-78
2022/12/18 04:18:18;;;;;;;5.15;2.92;;;-1.30;99.90;;;;;;5031296;28;20147;-78
2022/12/18 04:20:45;;;;;;;4.80;3.13;;;-1.20;99.90;;;;;;5065980;28;20536;-79
2022/12/18 04:23:11;;;;;;;5.35;3.30;;;-1.10;99.90;;;;;;5063857;28;20056;-79
2022/12/18 04:25:38;;;;;;;4.35;2.40;;;-1.10;99.90;;;;;;5047268;28;20742;-78
2022/12/18 04:28:05;;;;;;;6.22;3.30;;;-1.00;99.90;;;;;;5063337;28;20052;-78
2022/12/18 04:30:32;;;;;;;5.90;2.67;;;-1.00;99.90;;;;;;5047792;28;20054;-78
2022/12/18 04:32:58;;;;;;;4.25;2.90;;;-1.00;99.90;;;;;;5030412;28;20057;-78
2022/12/18 04:35:25;;;;;;;5.32;2.97;;;-1.00;99.90;;;;;;5047961;28;20048;-78
2022/12/18 04:37:52;;;;;;;5.05;3.05;;;-0.90;99.90;;;;;;5046848;28;20449;-79
2022/12/18 04:40:19;;;;;;;7.07;4.10;;;-0.90;99.90;;;;;;5063780;28;20055;-78
2022/12/18 04:42:45;;;;;;;5.80;3.20;;;-0.80;99.90;;;;;;5046417;28;20052;-79
2022/12/18 04:45:12;;;;;;;6.30;4.35;;;-0.80;99.90;;;;;;5047313;28;20057;-79
2022/12/18 04:47:39;;;;;;;5.53;3.83;;;-0.70;99.90;;;;;;5068281;28;20045;-78
2022/12/18 04:50:06;;;;;;;4.97;3.25;;;-0.60;99.90;;;;;;5067436;28;20135;-78
2022/12/18 04:52:33;;;;;;;5.13;3.53;;;-0.60;99.90;;;;;;5067209;28;20056;-78
2022/12/18 04:55:00;;;;;;;5.93;3.47;;;-0.50;99.90;;;;;;5034383;28;20056;-79
2022/12/18 04:57:27;;;;;;;6.95;4.70;;;-0.50;99.90;;;;;;5068436;28;20044;-79
2022/12/18 04:59:54;;;;;;;7.80;4.80;;;-0.40;99.90;;;;;;5050666;28;20072;-79
2022/12/18 05:02:20;;;;;;;8.38;4.95;;;-0.30;99.90;;;;;;5067506;28;20123;-78
2022/12/18 05:04:47;;;;;;;8.60;5.40;;;-0.30;99.90;;;;;;5034129;28;20106;-79
2022/12/18 05:07:14;;;;;;;6.35;4.13;;;-0.20;99.90;;;;;;5034510;28;20052;-79
2022/12/18 05:09:41;;;;;;;6.93;5.00;;;-0.10;99.90;;;;;;5049995;28;20040;-78
2022/12/18 05:12:07;;;;;;;6.85;4.38;;;-0.10;99.90;;;;;;5067516;28;20044;-79
2022/12/18 05:14:34;;;;;;;9.05;5.95;;;0.00;99.90;;;;;;5033457;28;20044;-78
2022/12/18 05:17:01;;;;;;;7.88;4.72;;;0.00;99.90;;;;;;5068568;28;20160;-79
2022/12/18 05:19:28;;;;;;;7.95;4.88;;;0.10;99.90;;;;;;5050404;28;20128;-78
2022/12/18 05:21:54;;;;;;;7.10;5.00;;;0.10;99.90;;;;;;5050328;28;20136;-79
2022/12/18 05:24:21;;;;;;;7.47;5.20;;;0.10;99.90;;;;;;5050347;28;20044;-78
2022/12/18 05:26:48;;;;;;;8.15;4.93;;;0.10;99.90;;;;;;5050930;28;20430;-78
2022/12/18 05:29:15;;;;;;;9.88;5.53;;;0.10;99.90;;;;;;5033263;28;20428;-79
2022/12/18 05:31:41;;;;;;;7.57;5.07;;;0.20;99.90;;;;;;5050277;28;20082;-78
2022/12/18 05:34:09;;;;;;;8.00;5.72;;;0.20;99.90;;;;;;5049829;28;20545;-79
2022/12/18 05:36:36;;;;;;;6.90;4.63;;;0.20;99.90;;;;;;5068262;28;20418;-78
2022/12/18 05:39:03;;;;;;;7.03;5.03;;;0.30;99.90;;;;;;5049876;28;20049;-79
2022/12/18 05:41:31;;;;;;;8.15;5.55;;;0.30;99.90;;;;;;5066681;28;20084;-79
2022/12/18 05:43:58;;;;;;;7.70;5.82;;;0.30;99.90;;;;;;5065738;28;20080;-79
2022/12/18 05:46:25;;;;;;;8.15;5.38;;;0.40;99.90;;;;;;5049952;28;20063;-79
2022/12/18 05:48:52;;;;;;;8.98;5.22;;;0.40;99.90;;;;;;5027611;28;20373;-79
2022/12/18 05:51:20;;;;;;;9.52;5.85;;;0.40;99.90;;;;;;5044809;28;20053;-78
2022/12/18 05:53:47;;;;;;;9.23;6.03;;;0.50;99.90;;;;;;5056827;28;20471;-79
2022/12/18 05:56:16;;;;;;;9.35;6.05;;;0.50;99.90;;;;;;5048321;28;20131;-79
2022/12/18 05:58:43;;;;;;;8.85;4.93;;;0.50;99.90;;;;;;5046124;28;20049;-78
2022/12/18 06:01:18;;;;;;;8.90;5.53;;;0.50;99.90;;;;;;5063944;28;20063;-79
2022/12/18 06:03:45;;;;;;;8.05;5.30;;;0.50;99.90;;;;;;5061825;28;20059;-79
2022/12/18 06:06:18;;;;;;;7.05;4.45;;;0.60;99.90;;;;;;5046197;28;20455;-79
2022/12/18 06:08:45;;;;;;;7.10;4.57;;;0.60;99.90;;;;;;5064488;28;20052;-79
2022/12/18 06:11:13;;;;;;;8.35;5.47;;;0.60;99.90;;;;;;5064820;28;20060;-79
2022/12/18 06:13:39;;;;;;;8.35;5.53;;;0.60;99.90;;;;;;5045302;28;20127;-78
2022/12/18 06:16:07;;;;;;;8.57;5.65;;;0.60;99.90;;;;;;5062320;28;20048;-79
2022/12/18 06:18:34;;;;;;;8.30;6.32;;;0.60;99.90;;;;;;5045670;28;20059;-78
2022/12/18 06:21:01;;;;;;;9.50;5.90;;;0.60;99.90;;;;;;5048864;28;20044;-79
2022/12/18 06:23:28;;;;;;;8.25;5.47;;;0.60;99.90;;;;;;5063887;28;20056;-79
2022/12/18 06:25:55;;;;;;;7.70;5.15;;;0.60;99.90;;;;;;5029335;28;20048;-79
2022/12/18 06:28:22;;;;;;;8.95;5.70;;;0.70;99.90;;;;;;5028640;28;20049;-79
2022/12/18 06:30:49;;;;;;;6.72;4.18;;;0.70;99.90;;;;;;5045307;28;20057;-79
2022/12/18 06:33:16;;;;;;;7.03;4.65;;;0.70;99.90;;;;;;5061745;28;20049;-80
2022/12/18 06:35:42;;;;;;;7.82;5.25;;;0.70;99.90;;;;;;5046290;28;20052;-79
2022/12/18 06:38:09;;;;;;;6.80;4.60;;;0.70;99.90;;;;;;5065042;28;20055;-78
2022/12/18 06:40:38;;;;;;;7.50;4.72;;;0.70;99.90;;;;;;5048710;28;20124;-79
2022/12/18 06:43:05;;;;;;;6.90;4.68;;;0.70;99.90;;;;;;5048201;28;20055;-79
2022/12/18 06:45:32;;;;;;;6.13;4.47;;;0.70;99.90;;;;;;5065969;28;20663;-80
2022/12/18 06:47:59;;;;;;;7.95;5.07;;;0.70;99.90;;;;;;5046286;28;20052;-80
2022/12/18 06:50:26;;;;;;;6.28;4.72;;;0.70;99.90;;;;;;5063405;28;20079;-79
2022/12/18 06:52:53;;;;;;;6.72;4.18;;;0.80;99.90;;;;;;5044708;28;20094;-79
2022/12/18 06:55:19;;;;;;;6.85;4.30;;;0.80;99.90;;;;;;5028258;28;20568;-79
2022/12/18 06:57:46;;;;;;;7.20;4.72;;;0.80;99.90;;;;;;5028065;28;20138;-79
2022/12/18 07:00:13;;;;;;;6.60;4.47;;;0.80;99.90;;;;;;5061400;28;20486;-80
2022/12/18 07:02:40;;;;;;;7.75;4.82;;;0.90;99.90;;;;;;5061932;28;20679;-80
2022/12/18 07:05:07;;;;;;;7.25;4.60;;;0.90;99.90;;;;;;5061292;28;20094;-80
2022/12/18 07:07:36;;;;;;;5.82;4.32;;;0.90;99.90;;;;;;5047377;28;20461;-80
2022/12/18 07:10:03;;;;;;;6.07;3.72;;;0.90;99.90;;;;;;5065333;28;20062;-79
2022/12/18 07:12:30;;;;;;;7.88;5.22;;;0.90;99.90;;;;;;5030951;28;20140;-79
2022/12/18 07:14:57;;;;;;;6.00;3.80;;;1.00;99.90;;;;;;5064450;28;20051;-78
2022/12/18 07:17:24;;;;;;;4.97;3.83;;;1.00;99.90;;;;;;5064516;28;20056;-78
2022/12/18 07:19:51;;;;;;;5.57;3.53;;;1.00;99.90;;;;;;5063947;28;20393;-79
2022/12/18 07:22:17;;;;;;;5.88;3.75;;;1.00;99.90;;;;;;5048074;28;20401;-79
2022/12/18 07:24:44;;;;;;;6.80;4.53;;;1.00;99.90;;;;;;5030919;28;20135;-80
2022/12/18 07:27:11;;;;;;;7.57;4.88;;;1.00;99.90;;;;;;5031948;28;20054;-78
2022/12/18 07:29:38;;;;;;;6.38;3.85;;;1.00;99.90;;;;;;5029389;28;20572;-78
2022/12/18 07:32:05;;;;;;;7.00;4.28;;;1.10;99.90;;;;;;5062408;28;20048;-79
2022/12/18 07:34:32;;;;;;;5.45;3.67;;;1.10;99.90;;;;;;5062491;28;20093;-79
2022/12/18 07:36:59;;;;;;;5.75;3.80;;;1.10;99.90;;;;;;5046286;28;20070;-79
2022/12/18 07:39:26;;;;;;;4.93;3.38;;;1.10;99.90;;;;;;5046385;28;20045;-80
2022/12/18 07:44:38;;;;;;;5.70;3.70;;;1.10;99.90;;;;;;5063507;28;20048;-80
2022/12/18 07:47:05;;;;;;;6.35;4.22;;;1.10;99.90;;;;;;5047415;28;20040;-80
2022/12/18 07:49:37;;;;;;;6.80;5.10;;;1.10;99.90;;;;;;5063370;28;20057;-79
2022/12/18 07:52:04;;;;;;;6.85;4.88;;;1.10;99.90;;;;;;5045136;28;20047;-80
2022/12/18 07:54:31;;;;;;;6.22;4.65;;;1.10;99.90;;;;;;5060536;28;20512;-81
2022/12/18 07:56:58;;;;;;;9.02;5.53;;;1.10;99.90;;;;;;5062783;28;20044;-81
2022/12/18 07:59:25;;;;;;;6.35;4.05;;;1.10;99.90;;;;;;5045235;28;20124;-81
2022/12/18 08:01:51;;;;;;;8.85;5.53;;;1.20;99.90;;;;;;5027303;28;20060;-80
2022/12/18 08:04:18;;;;;;;9.18;5.57;;;1.10;99.90;;;;;;5041660;28;20411;-80
2022/12/18 08:06:45;;;;;;;8.20;5.85;;;1.20;99.90;;;;;;5025683;28;20045;-80
2022/12/18 08:09:14;;;;;;;7.55;5.43;;;1.10;99.90;;;;;;5058741;28;20048;-80
2022/12/18 08:11:40;;;;;;;6.95;4.60;;;1.20;99.90;;;;;;5027924;28;20396;-81
2022/12/18 08:14:07;;;;;;;7.50;5.45;;;1.20;99.90;;;;;;5027409;28;20058;-81
2022/12/18 08:16:34;;;;;;;8.80;5.30;;;1.20;99.90;;;;;;5046911;28;20055;-81
2022/12/18 08:19:01;;;;;;;8.43;5.63;;;1.20;99.90;;;;;;5046540;28;20052;-81
2022/12/18 08:21:29;;;;;;;8.50;6.10;;;1.20;99.90;;;;;;5049826;28;20055;-80
2022/12/18 08:23:57;;;;;;;8.40;5.45;;;1.30;99.90;;;;;;5049800;28;20139;-81
2022/12/18 08:26:25;;;;;;;9.18;5.40;;;1.30;99.90;;;;;;5067175;28;20097;-80
2022/12/18 08:28:52;;;;;;;8.10;5.53;;;1.30;99.90;;;;;;5067980;28;20095;-80
2022/12/18 08:31:19;;;;;;;10.15;6.13;;;1.40;99.90;;;;;;5069599;28;20045;-79
2022/12/18 08:33:49;;;;;;;10.50;7.13;;;1.40;99.90;;;;;;5051091;28;20124;-80
2022/12/18 08:36:16;;;;;;;9.15;5.70;;;1.40;99.90;;;;;;5062763;28;20037;-79
2022/12/18 08:38:43;;;;;;;10.63;6.82;;;1.50;99.90;;;;;;5029220;28;20079;-81
2022/12/18 08:41:11;;;;;;;9.70;7.07;;;1.50;99.90;;;;;;5040073;28;20044;-81
2022/12/18 08:46:24;;;;;;;10.02;6.95;;;1.50;99.90;;;;;;5058111;28;20563;-81
2022/12/18 08:48:51;;;;;;;8.10;5.82;;;1.50;99.90;;;;;;5046301;28;20052;-81
2022/12/18 08:51:18;;;;;;;10.73;7.10;;;1.60;99.90;;;;;;5047459;28;20384;-80
2022/12/18 08:53:45;;;;;;;11.88;7.45;;;1.60;99.90;;;;;;5062909;28;20052;-80
2022/12/18 08:56:12;;;;;;;11.10;8.02;;;1.70;99.90;;;;;;5062881;28;20044;-81
2022/12/18 08:58:39;;;;;;;10.52;7.32;;;1.70;99.90;;;;;;5045619;28;20540;-81
2022/12/18 09:01:08;;;;;;;10.35;6.28;;;1.70;99.90;;;;;;5062397;28;20082;-81
2022/12/18 09:03:35;;;;;;;10.40;6.78;;;1.70;99.90;;;;;;5043393;28;20544;-81
2022/12/18 09:06:02;;;;;;;11.75;8.00;;;1.70;99.90;;;;;;5045564;28;20143;-80
2022/12/18 09:08:29;;;;;;;8.25;6.18;;;1.80;99.90;;;;;;5045812;28;20045;-81
2022/12/18 09:10:56;;;;;;;8.25;6.28;;;1.80;99.90;;;;;;5063632;28;20049;-81
2022/12/18 09:13:23;;;;;;;8.25;6.15;;;1.80;99.90;;;;;;5037712;28;20063;-80
2022/12/18 09:15:52;;;;;;;8.85;5.72;;;1.80;99.90;;;;;;5061851;28;20052;-81
2022/12/18 09:18:20;;;;;;;8.07;5.57;;;1.80;99.90;;;;;;5062081;28;20089;-81
2022/12/18 09:20:46;;;;;;;6.82;4.90;;;1.90;99.90;;;;;;5058861;28;20531;-80
2022/12/18 09:23:13;;;;;;;7.45;4.75;;;1.90;99.90;;;;;;5037795;28;20052;-81
2022/12/18 09:25:40;;;;;;;7.28;5.32;;;1.90;99.90;;;;;;5038253;28;20071;-81
2022/12/18 09:28:10;;;;;;;10.27;5.47;;;1.90;99.90;;;;;;5038871;28;20131;-81
2022/12/18 09:30:41;;;;;;;9.02;5.72;;;1.90;99.90;;;;;;5060788;28;20594;-80
2022/12/18 09:33:08;;;;;;;7.25;5.30;;;1.90;99.90;;;;;;5042894;28;20145;-81
2022/12/18 09:35:38;;;;;;;9.55;5.70;;;2.00;99.90;;;;;;5024837;28;20065;-80
2022/12/18 09:38:05;;;;;;;9.75;6.65;;;2.00;99.90;;;;;;5057186;28;20471;-79
2022/12/18 09:40:39;;;;;;;8.25;6.07;;;2.00;99.90;;;;;;5052269;28;20169;-80
2022/12/18 09:43:06;;;;;;;11.45;6.32;;;2.00;99.90;;;;;;5039639;28;20052;-79
2022/12/18 09:45:40;;;;;;;6.05;4.60;;;2.10;99.90;;;;;;5039290;28;20267;-79
2022/12/18 09:48:10;;;;;;;4.97;3.30;;;2.20;99.90;;;;;;5053073;28;20561;-79
2022/12/18 09:50:38;;;;;;;6.53;4.70;;;2.20;99.90;;;;;;5026022;28;20087;-79
2022/12/18 09:53:07;;;;;;;5.32;4.00;;;2.20;99.90;;;;;;5042011;28;20052;-80
2022/12/18 09:55:40;;;;;;;5.97;3.63;;;2.30;99.90;;;;;;5040854;28;20454;-79
2022/12/18 09:58:16;;;;;;;5.63;4.00;;;2.30;99.90;;;;;;5032385;28;20230;-80
2022/12/18 10:00:43;;;;;;;7.25;5.00;;;2.30;99.90;;;;;;5060179;28;20075;-79
2022/12/18 10:03:12;;;;;;;7.90;5.00;;;2.30;99.90;;;;;;5042133;28;20377;-80
2022/12/18 10:06:00;;;;;;;5.50;3.97;;;2.30;99.90;;;;;;5042899;28;20057;-80
2022/12/18 10:08:36;;;;;;;5.90;3.47;;;2.30;99.90;;;;;;5068008;28;20047;-80
2022/12/18 10:11:51;;;;;;;5.07;3.58;;;2.40;99.90;;;;;;5075461;28;20048;-80
2022/12/18 10:14:46;;;;;;;4.97;3.17;;;2.40;99.90;;;;;;5013583;28;20056;-80
2022/12/18 10:17:39;;;;;;;3.78;2.92;;;2.40;99.90;;;;;;5042240;28;20873;-80
2022/12/18 10:20:35;;;;;;;5.78;3.67;;;2.50;99.90;;;;;;5057135;28;20899;-79
2022/12/18 10:23:18;;;;;;;5.43;3.95;;;2.50;99.90;;;;;;5040946;28;20364;-79
2022/12/18 10:25:48;;;;;;;5.55;3.95;;;2.50;99.90;;;;;;5058768;28;20055;-78
2022/12/18 10:28:15;;;;;;;5.47;3.42;;;2.50;99.90;;;;;;5067532;28;20139;-79
2022/12/18 10:30:42;;;;;;;6.13;3.90;;;2.50;99.90;;;;;;5054044;28;20128;-79
2022/12/18 10:33:31;;;;;;;5.35;3.80;;;2.50;99.90;;;;;;5051224;28;20048;-79
2022/12/18 10:35:58;;;;;;;5.25;3.88;;;2.60;99.90;;;;;;5034626;28;20076;-77
2022/12/18 10:38:26;;;;;;;5.05;3.60;;;2.60;99.90;;;;;;5057016;28;20048;-76
2022/12/18 10:41:14;;;;;;;4.82;3.40;;;2.70;99.90;;;;;;5045638;28;20048;-77
2022/12/18 10:43:40;;;;;;;5.90;4.07;;;2.70;99.90;;;;;;5045654;28;20068;-77
2022/12/18 10:46:07;;;;;;;5.30;3.67;;;2.70;99.90;;;;;;5048178;28;20148;-77
2022/12/18 10:48:52;;;;;;;4.95;3.95;;;2.70;99.90;;;;;;5050488;28;20052;-77
2022/12/18 10:51:29;;;;;;;6.03;3.72;;;2.80;99.90;;;;;;5041003;28;20045;-79
2022/12/18 10:54:03;;;;;;;5.50;4.47;;;2.80;99.90;;;;;;5061152;28;20828;-81
2022/12/18 10:56:34;;;;;;;5.00;3.70;;;2.90;99.90;;;;;;5051358;28;20128;-81
2022/12/18 10:59:03;;;;;;;6.50;4.75;;;2.90;99.90;;;;;;5040740;28;20478;-78
2022/12/18 11:01:46;;;;;;;5.90;4.00;;;2.90;99.90;;;;;;5058258;28;20496;-81
2022/12/18 11:04:28;;;;;;;6.53;4.63;;;3.00;99.90;;;;;;5066671;28;20357;-81
2022/12/18 11:07:06;;;;;;;7.13;5.07;;;3.00;99.90;;;;;;5056988;28;20114;-80
2022/12/18 11:09:37;;;;;;;6.20;4.57;;;3.00;99.90;;;;;;5057572;28;20549;-81
2022/12/18 11:12:26;;;;;;;6.82;4.55;;;3.00;99.90;;;;;;5056220;28;20098;-78
2022/12/18 11:14:54;;;;;;;7.15;5.05;;;3.00;99.90;;;;;;5036981;28;20278;-79
2022/12/18 11:17:30;;;;;;;6.20;4.75;;;3.00;99.90;;;;;;5065652;28;20164;-79
2022/12/18 11:20:04;;;;;;;7.20;4.95;;;3.00;99.90;;;;;;5048167;28;20622;-80
2022/12/18 11:22:32;;;;;;;9.88;6.05;;;3.10;99.90;;;;;;5032595;28;20075;-81
2022/12/18 11:25:22;;;;;;;7.22;5.25;;;3.10;99.90;;;;;;5059572;28;20044;-81
2022/12/18 11:28:24;;;;;;;6.43;4.80;;;3.20;99.90;;;;;;5054167;28;20057;-81
2022/12/18 11:31:20;;;;;;;8.88;6.13;;;3.20;99.90;;;;;;5047672;28;20437;-81
2022/12/18 11:33:52;;;;;;;8.77;5.50;;;3.20;99.90;;;;;;5049711;28;20049;-81
2022/12/18 11:36:41;;;;;;;9.13;5.97;;;3.30;99.90;;;;;;5058242;28;20187;-81
2022/12/18 11:39:36;;;;;;;9.60;6.65;;;3.20;99.90;;;;;;5023449;28;20054;-81
2022/12/18 11:42:10;;;;;;;10.50;7.10;;;3.20;99.90;;;;;;5057459;28;20078;-81
2022/12/18 11:44:58;;;;;;;8.77;7.00;;;3.20;99.90;;;;;;5056558;28;20171;-81
2022/12/18 11:47:29;;;;;;;10.52;7.68;;;3.20;99.90;;;;;;5039401;28;20507;-79
2022/12/18 11:49:56;;;;;;;10.10;6.68;;;3.20;99.90;;;;;;5057260;28;20086;-78
2022/12/18 11:52:25;;;;;;;8.35;6.10;;;3.20;99.90;;;;;;5065412;28;20166;-80
2022/12/18 11:54:53;;;;;;;10.57;7.25;;;3.20;99.90;;;;;;5058071;28;20228;-81
2022/12/18 11:57:23;;;;;;;9.98;7.63;;;3.20;99.90;;;;;;5053561;28;20079;-81
2022/12/18 12:00:28;;;;;;;10.50;7.40;;;3.20;99.90;;;;;;5059572;28;20637;-81
2022/12/18 12:03:42;;;;;;;8.93;6.60;;;3.20;99.90;;;;;;4973813;28;20144;-81
2022/12/18 12:06:16;;;;;;;8.05;5.88;;;3.20;99.90;;;;;;4954720;28;20073;-78
2022/12/18 12:08:53;;;;;;;8.70;6.70;;;3.20;99.90;;;;;;5066047;28;20068;-75
2022/12/18 12:11:27;;;;;;;8.07;5.75;;;3.20;99.90;;;;;;5058446;28;20050;-75
2022/12/18 12:14:00;;;;;;;10.88;7.72;;;3.20;99.90;;;;;;5056273;28;20261;-75
2022/12/18 12:16:29;;;;;;;9.77;7.05;;;3.20;99.90;;;;;;5057619;28;20123;-75
2022/12/18 12:19:21;;;;;;;7.47;6.20;;;3.20;99.90;;;;;;5057278;28;20596;-75
2022/12/18 12:22:04;;;;;;;8.75;7.63;;;3.10;99.90;;;;;;5059392;28;20150;-75
2022/12/18 12:24:56;;;;;;;11.05;7.78;;;3.10;99.90;;;;;;5056015;28;20245;-75
2022/12/18 12:27:55;;;;;;;9.55;7.18;;;3.10;99.90;;;;;;5021281;28;20059;-75
2022/12/18 12:30:29;;;;;;;13.07;9.20;;;3.10;99.90;;;;;;5050657;28;20439;-75
2022/12/18 12:33:09;;;;;;;13.23;9.13;;;3.10;99.90;;;;;;5057425;28;20093;-74
2022/12/18 12:35:47;;;;;;;11.15;8.32;;;3.10;99.90;;;;;;5057870;28;20080;-75
2022/12/18 12:38:22;;;;;;;11.55;7.78;;;3.10;99.90;;;;;;5041331;28;20538;-75
2022/12/18 12:44:04;;;;;;;11.60;7.93;;;3.10;99.90;;;;;;5047623;28;20045;-75
2022/12/18 12:46:32;;;;;;;8.88;7.45;;;3.10;99.90;;;;;;5041036;28;20051;-75
2022/12/18 12:49:01;;;;;;;10.35;7.30;;;3.20;99.90;;;;;;5056388;28;20127;-75
2022/12/18 12:51:35;;;;;;;10.27;8.05;;;3.20;99.90;;;;;;5053636;28;20101;-76
2022/12/18 12:54:04;;;;;;;10.75;7.50;;;3.20;99.90;;;;;;5052325;28;20595;-76
2022/12/18 12:56:52;;;;;;;9.77;7.78;;;3.20;99.90;;;;;;5057036;28;20071;-76
2022/12/18 12:59:40;;;;;;;11.45;9.02;;;3.20;99.90;;;;;;5048262;28;22179;-77
2022/12/18 13:02:20;;;;;;;11.07;8.10;;;3.20;99.90;;;;;;5063501;28;20055;-76
2022/12/18 13:05:05;;;;;;;9.07;7.13;;;3.20;99.90;;;;;;5057501;28;20155;-76
2022/12/18 13:07:39;;;;;;;8.68;6.15;;;3.20;99.90;;;;;;5042321;28;20052;-76
2022/12/18 13:10:25;;;;;;;8.35;6.03;;;3.20;99.90;;;;;;5060069;28;20322;-76
2022/12/18 13:13:04;;;;;;;6.88;5.45;;;3.20;99.90;;;;;;5056205;28;20601;-76
2022/12/18 13:15:34;;;;;;;7.60;5.70;;;3.20;99.90;;;;;;5057541;28;20383;-78
2022/12/18 13:18:10;;;;;;;7.72;6.35;;;3.20;99.90;;;;;;5067509;28;20163;-78
2022/12/18 13:20:38;;;;;;;8.63;6.75;;;3.20;99.90;;;;;;5059001;28;20082;-77
2022/12/18 13:23:27;;;;;;;7.82;5.45;;;3.20;99.90;;;;;;5063966;28;20067;-77
2022/12/18 13:25:56;;;;;;;8.70;6.03;;;3.20;99.90;;;;;;5058310;28;20052;-77
2022/12/18 13:28:48;;;;;;;8.88;6.68;;;3.20;99.90;;;;;;5058509;28;20328;-78
2022/12/18 13:31:34;;;;;;;8.68;6.80;;;3.10;99.90;;;;;;5073760;28;20044;-78